createdAt,value
2019-06-27T00:02:31.886Z,52.26
2019-06-27T00:05:20.906Z,52.20
2019-06-27T00:08:02.465Z,52.34
2019-06-27T00:10:34.434Z,52.41
2019-06-27T00:15:53.478Z,52.58
2019-06-27T00:21:32.090Z,52.81
2019-06-27T00:24:02.204Z,52.81
2019-06-27T00:27:11.277Z,53.00
2019-06-27T00:29:40.749Z,52.97
2019-06-27T00:32:10.072Z,53.08
2019-06-27T00:35:18.790Z,53.30
2019-06-27T00:40:49.917Z,53.42
2019-06-27T00:46:29.839Z,53.80
2019-06-27T00:48:59.738Z,54.14
2019-06-27T00:51:29.789Z,54.00
2019-06-27T00:53:59.661Z,54.14
2019-06-27T00:56:29.093Z,54.14
2019-06-27T00:58:59.577Z,54.19
2019-06-27T01:01:29.573Z,54.28
2019-06-27T01:03:59.024Z,54.46
2019-06-27T01:06:29.764Z,54.42
2019-06-27T01:09:00.281Z,54.70
2019-06-27T01:12:08.984Z,55.28
2019-06-27T01:14:38.730Z,54.64
2019-06-27T01:17:47.631Z,54.76
2019-06-27T01:23:45.136Z,55.17
2019-06-27T01:26:15.855Z,55.56
2019-06-27T01:28:45.518Z,55.57
2019-06-27T01:34:12.164Z,55.56
2019-06-27T01:36:42.176Z,55.39
2019-06-27T01:39:51.158Z,55.80
2019-06-27T01:42:21.224Z,55.57
2019-06-27T01:45:09.537Z,55.79
2019-06-27T01:47:39.373Z,55.75
2019-06-27T01:50:09.327Z,55.63
2019-06-27T01:52:41.192Z,55.59
2019-06-27T01:55:52.337Z,56.37
2019-06-27T02:01:17.044Z,56.17
2019-06-27T02:06:56.442Z,56.46
2019-06-27T02:09:27.096Z,56.25
2019-06-27T02:12:36.088Z,56.02
2019-06-27T02:18:21.086Z,55.99
2019-06-27T02:20:50.486Z,55.72
2019-06-27T02:23:21.005Z,55.98
2019-06-27T02:25:51.651Z,55.91
2019-06-27T02:31:22.553Z,55.89
2019-06-27T02:37:07.107Z,56.27
2019-06-27T02:39:37.018Z,56.24
2019-06-27T02:42:07.036Z,56.22
2019-06-27T02:44:36.861Z,56.56
2019-06-27T02:47:06.994Z,56.57
2019-06-27T02:49:36.868Z,56.29
2019-06-27T02:52:06.500Z,56.36
2019-06-27T02:54:36.299Z,56.10
2019-06-27T02:57:44.996Z,56.24
2019-06-27T03:00:54.206Z,56.36
2019-06-27T03:03:24.009Z,56.39
2019-06-27T03:09:08.241Z,56.10
2019-06-27T03:11:37.906Z,56.38
2019-06-27T03:14:46.601Z,56.53
2019-06-27T03:17:16.662Z,56.33
2019-06-27T03:19:46.221Z,56.21
2019-06-27T03:25:22.877Z,56.42
2019-06-27T03:27:52.328Z,56.24
2019-06-27T03:30:22.108Z,56.00
2019-06-27T03:32:54.219Z,56.26
2019-06-27T03:35:23.639Z,56.57
2019-06-27T03:38:32.534Z,56.23
2019-06-27T03:41:13.777Z,56.25
2019-06-27T03:43:43.883Z,56.38
2019-06-27T03:49:22.484Z,56.76
2019-06-27T03:51:52.310Z,56.09
2019-06-27T03:55:01.372Z,56.59
2019-06-27T03:57:30.756Z,56.26
2019-06-27T04:00:01.284Z,56.00
2019-06-27T04:02:30.790Z,55.96
2019-06-27T04:05:00.909Z,56.20
2019-06-27T04:08:10.202Z,56.30
2019-06-27T04:13:54.719Z,56.23
2019-06-27T04:19:34.297Z,56.19
2019-06-27T04:22:03.798Z,55.85
2019-06-27T04:24:33.705Z,55.46
2019-06-27T04:27:04.509Z,55.53
2019-06-27T04:29:35.104Z,55.59
2019-06-27T04:32:07.175Z,55.73
2019-06-27T04:35:16.130Z,55.46
2019-06-27T04:37:47.253Z,55.64
2019-06-27T04:40:56.501Z,55.52
2019-06-27T04:46:41.885Z,55.71
2019-06-27T04:49:13.871Z,55.84
2019-06-27T04:51:44.616Z,55.21
2019-06-27T04:54:15.930Z,54.93
2019-06-27T04:56:57.767Z,54.69
2019-06-27T05:00:06.965Z,54.79
2019-06-27T05:08:17.782Z,53.28
2019-06-27T05:11:26.498Z,52.92
2019-06-27T05:16:51.827Z,51.52
2019-06-27T05:19:22.698Z,51.61
2019-06-27T05:21:52.459Z,51.03
2019-06-27T05:24:22.241Z,51.47
2019-06-27T05:30:09.644Z,50.98
2019-06-27T05:32:32.683Z,50.44
2019-06-27T05:35:41.907Z,49.67
2019-06-27T05:38:11.257Z,49.20
2019-06-27T05:40:40.725Z,49.57
2019-06-27T05:43:10.965Z,50.22
2019-06-27T05:45:40.764Z,49.40
2019-06-27T05:48:10.244Z,49.61
2019-06-27T05:53:35.428Z,48.37
2019-06-27T05:56:16.806Z,48.41
2019-06-27T05:58:58.122Z,47.86
2019-06-27T06:01:27.997Z,47.83
2019-06-27T06:04:36.873Z,45.84
2019-06-27T06:07:07.387Z,46.47
2019-06-27T06:09:36.862Z,45.73
2019-06-27T06:12:06.812Z,45.77
2019-06-27T06:14:36.390Z,45.03
2019-06-27T06:17:05.790Z,45.80
2019-06-27T06:19:35.191Z,45.46
2019-06-27T06:22:05.244Z,45.21
2019-06-27T06:24:34.604Z,45.56
2019-06-27T06:27:04.486Z,45.29
2019-06-27T06:29:33.855Z,45.10
2019-06-27T06:32:43.038Z,44.50
2019-06-27T06:38:23.240Z,43.55
2019-06-27T06:40:52.850Z,43.87
2019-06-27T06:43:42.631Z,43.57
2019-06-27T06:46:12.471Z,44.01
2019-06-27T06:51:37.674Z,42.21
2019-06-27T06:54:08.112Z,43.19
2019-06-27T06:56:38.086Z,42.64
2019-06-27T06:59:21.449Z,42.54
2019-06-27T07:02:03.623Z,41.97
2019-06-27T07:07:13.052Z,41.78
2019-06-27T07:09:41.570Z,42.10
2019-06-27T07:12:11.897Z,42.60
2019-06-27T07:17:40.166Z,41.40
2019-06-27T07:20:48.893Z,41.80
2019-06-27T07:23:18.869Z,41.36
2019-06-27T07:25:48.480Z,40.64
2019-06-27T07:28:20.511Z,40.32
2019-06-27T07:30:50.373Z,40.90
2019-06-27T07:33:21.319Z,40.41
2019-06-27T07:35:51.941Z,41.34
2019-06-27T07:38:22.690Z,41.88
2019-06-27T07:40:52.822Z,41.76
2019-06-27T07:43:22.807Z,41.33
2019-06-27T07:48:48.749Z,41.00
2019-06-27T07:54:27.805Z,40.92
2019-06-27T07:56:57.303Z,40.68
2019-06-27T07:59:26.821Z,39.79
2019-06-27T08:01:56.743Z,39.62
2019-06-27T08:04:26.091Z,39.98
2019-06-27T08:06:55.466Z,39.77
2019-06-27T08:09:25.337Z,39.51
2019-06-27T08:14:43.258Z,39.81
2019-06-27T08:17:52.419Z,39.54
2019-06-27T08:22:57.984Z,39.83
2019-06-27T08:28:22.811Z,39.03
2019-06-27T08:33:55.949Z,38.96
2019-06-27T08:36:25.462Z,39.25
2019-06-27T08:38:55.072Z,38.84
2019-06-27T08:41:25.248Z,39.53
2019-06-27T08:44:34.090Z,39.15
2019-06-27T08:50:00.285Z,39.03
2019-06-27T08:58:32.839Z,38.66
2019-06-27T09:01:02.322Z,38.38
2019-06-27T09:03:32.178Z,37.56
2019-06-27T09:06:02.049Z,37.64
2019-06-27T09:08:31.925Z,36.61
2019-06-27T09:11:01.699Z,37.86
2019-06-27T09:14:10.759Z,37.66
2019-06-27T09:16:41.229Z,37.73
2019-06-27T09:19:10.687Z,37.84
2019-06-27T09:22:19.543Z,38.57
2019-06-27T09:24:48.998Z,38.29
2019-06-27T09:30:48.862Z,37.79
2019-06-27T09:33:18.719Z,38.35
2019-06-27T09:35:48.330Z,37.35
2019-06-27T09:38:57.142Z,37.87
2019-06-27T09:41:26.880Z,37.29
2019-06-27T09:43:56.790Z,38.40
2019-06-27T09:47:06.474Z,37.38
2019-06-27T09:49:36.409Z,35.30
2019-06-27T09:52:05.978Z,36.52
2019-06-27T09:54:35.464Z,36.02
2019-06-27T09:57:44.756Z,36.01
2019-06-27T10:00:53.906Z,34.65
2019-06-27T10:03:34.790Z,34.31
2019-06-27T10:08:59.632Z,34.38
2019-06-27T10:11:29.038Z,32.93
2019-06-27T10:13:58.544Z,33.41
2019-06-27T10:16:28.301Z,32.83
2019-06-27T10:18:57.686Z,32.59
2019-06-27T10:21:27.188Z,33.66
2019-06-27T10:23:57.761Z,34.72
2019-06-27T10:26:28.086Z,34.98
2019-06-27T10:28:57.535Z,34.58
2019-06-27T10:32:06.223Z,35.07
2019-06-27T10:34:35.684Z,34.66
2019-06-27T10:37:44.549Z,35.45
2019-06-27T10:46:30.877Z,32.60
2019-06-27T10:49:00.546Z,32.53
2019-06-27T10:51:29.982Z,32.26
2019-06-27T10:53:59.771Z,32.38
2019-06-27T10:56:29.594Z,32.47
2019-06-27T10:59:00.799Z,32.90
2019-06-27T11:01:30.623Z,32.61
2019-06-27T11:07:01.823Z,32.57
2019-06-27T11:09:31.729Z,31.91
2019-06-27T11:12:01.237Z,31.87
2019-06-27T11:14:31.521Z,32.23
2019-06-27T11:17:01.286Z,32.47
2019-06-27T11:22:26.485Z,30.23
2019-06-27T11:24:56.217Z,29.97
2019-06-27T11:27:27.412Z,29.26
2019-06-27T11:29:57.259Z,29.13
2019-06-27T11:32:26.710Z,30.63
2019-06-27T11:34:56.800Z,30.42
2019-06-27T11:38:05.787Z,30.38
2019-06-27T11:43:50.399Z,31.11
2019-06-27T11:46:59.097Z,30.47
2019-06-27T11:49:28.756Z,30.99
2019-06-27T11:54:48.837Z,28.83
2019-06-27T11:57:58.805Z,29.45
2019-06-27T12:03:25.167Z,30.09
2019-06-27T12:05:55.391Z,30.58
2019-06-27T12:08:24.812Z,31.32
2019-06-27T12:10:54.306Z,30.69
2019-06-27T12:13:23.883Z,29.89
2019-06-27T12:15:53.425Z,29.97
2019-06-27T12:18:23.046Z,29.72
2019-06-27T12:20:53.457Z,29.59
2019-06-27T12:23:22.828Z,29.28
2019-06-27T12:25:53.200Z,28.61
2019-06-27T12:31:44.192Z,28.85
2019-06-27T12:37:24.123Z,27.43
2019-06-27T12:39:54.242Z,28.19
2019-06-27T12:42:34.845Z,26.86
2019-06-27T12:50:41.905Z,26.80
2019-06-27T12:56:20.486Z,27.01
2019-06-27T12:58:51.028Z,25.69
2019-06-27T13:01:21.224Z,26.47
2019-06-27T13:03:51.215Z,26.64
2019-06-27T13:06:21.956Z,26.79
2019-06-27T13:08:51.408Z,27.38
2019-06-27T13:14:10.902Z,27.37
2019-06-27T13:16:40.340Z,26.47
2019-06-27T13:19:12.034Z,25.48
2019-06-27T13:24:38.757Z,24.09
2019-06-27T13:27:08.564Z,23.81
2019-06-27T13:30:17.954Z,24.39
2019-06-27T13:32:47.871Z,25.41
2019-06-27T13:35:17.819Z,23.63
2019-06-27T13:38:27.314Z,21.16
2019-06-27T13:40:57.645Z,19.06
2019-06-27T13:43:27.452Z,20.70
2019-06-27T13:45:56.909Z,18.86
2019-06-27T13:48:27.015Z,19.71
2019-06-27T13:51:36.119Z,20.63
2019-06-27T13:54:10.298Z,21.32
2019-06-27T13:56:39.853Z,21.77
2019-06-27T13:59:09.246Z,21.39
2019-06-27T14:01:38.645Z,22.44
2019-06-27T14:04:57.288Z,22.32
2019-06-27T14:07:19.462Z,22.57
2019-06-27T14:09:53.975Z,23.85
2019-06-27T14:12:21.405Z,24.20
2019-06-27T14:14:59.623Z,23.58
2019-06-27T14:17:24.840Z,22.94
2019-06-27T14:19:54.639Z,22.96
2019-06-27T14:23:03.994Z,22.02
2019-06-27T14:25:34.728Z,22.02
2019-06-27T14:28:04.665Z,22.38
2019-06-27T14:30:35.142Z,22.62
2019-06-27T14:36:11.657Z,22.77
2019-06-27T14:38:42.657Z,21.80
2019-06-27T14:41:13.043Z,20.40
2019-06-27T14:43:42.572Z,21.17
2019-06-27T14:49:21.129Z,21.21
2019-06-27T14:54:52.062Z,18.85
2019-06-27T14:57:21.879Z,17.62
2019-06-27T14:59:51.373Z,17.11
2019-06-27T15:02:21.012Z,17.26
2019-06-27T15:04:52.818Z,17.26
2019-06-27T15:07:22.513Z,18.14
2019-06-27T15:09:52.373Z,17.22
2019-06-27T15:12:55.811Z,16.36
2019-06-27T15:15:24.349Z,15.58
2019-06-27T15:17:53.869Z,15.86
2019-06-27T15:20:23.273Z,16.30
2019-06-27T15:22:53.269Z,15.59
2019-06-27T15:25:28.401Z,16.41
2019-06-27T15:27:58.257Z,16.68
2019-06-27T15:30:28.203Z,17.49
2019-06-27T15:33:02.657Z,19.72
2019-06-27T15:38:47.059Z,21.09
2019-06-27T15:41:16.958Z,22.25
2019-06-27T15:43:47.462Z,21.96
2019-06-27T15:46:17.746Z,22.49
2019-06-27T15:48:47.649Z,22.65
2019-06-27T15:51:17.978Z,22.60
2019-06-27T15:53:48.245Z,22.19
2019-06-27T15:56:18.337Z,22.87
2019-06-27T15:59:28.331Z,22.26
2019-06-27T16:01:57.758Z,22.29
2019-06-27T16:04:33.756Z,22.11
2019-06-27T16:07:00.277Z,22.22
2019-06-27T16:09:30.322Z,22.87
2019-06-27T16:12:02.041Z,23.18
2019-06-27T16:14:32.497Z,23.46
2019-06-27T16:17:14.260Z,22.88
2019-06-27T16:20:23.932Z,22.30
2019-06-27T16:22:54.129Z,21.90
2019-06-27T16:25:23.555Z,21.61
2019-06-27T16:27:54.117Z,22.69
2019-06-27T16:30:45.301Z,21.47
2019-06-27T16:33:54.012Z,20.92
2019-06-27T16:36:26.005Z,20.68
2019-06-27T16:38:54.969Z,20.23
2019-06-27T16:41:27.283Z,20.19
2019-06-27T16:47:23.176Z,20.59
2019-06-27T16:49:53.947Z,20.82
2019-06-27T16:52:23.356Z,20.67
2019-06-27T16:54:54.069Z,21.06
2019-06-27T16:57:24.478Z,21.53
2019-06-27T17:00:33.302Z,21.73
2019-06-27T17:03:03.717Z,21.68
2019-06-27T17:05:33.721Z,22.12
2019-06-27T17:08:03.520Z,22.07
2019-06-27T17:10:34.515Z,22.48
2019-06-27T17:13:05.223Z,22.58
2019-06-27T17:15:36.380Z,23.48
2019-06-27T17:18:07.097Z,24.09
2019-06-27T17:21:17.617Z,24.73
2019-06-27T17:23:47.485Z,25.00
2019-06-27T17:26:56.178Z,24.85
2019-06-27T17:29:44.825Z,24.84
2019-06-27T17:32:15.057Z,24.79
2019-06-27T17:34:44.700Z,24.76
2019-06-27T17:37:18.462Z,24.64
2019-06-27T17:39:49.073Z,24.74
2019-06-27T17:42:37.515Z,24.89
2019-06-27T17:45:46.275Z,25.08
2019-06-27T17:48:16.636Z,25.10
2019-06-27T17:51:25.371Z,25.25
2019-06-27T17:53:55.481Z,25.54
2019-06-27T17:56:24.951Z,25.74
2019-06-27T17:58:54.479Z,26.10
2019-06-27T18:01:25.243Z,26.13
2019-06-27T18:03:55.024Z,26.26
2019-06-27T18:07:14.045Z,26.24
2019-06-27T18:09:36.638Z,26.25
2019-06-27T18:12:06.891Z,26.12
2019-06-27T18:17:46.208Z,26.33
2019-06-27T18:23:33.981Z,26.89
2019-06-27T18:26:42.818Z,27.05
2019-06-27T18:29:31.956Z,27.37
2019-06-27T18:34:57.300Z,27.75
2019-06-27T18:43:12.722Z,27.90
2019-06-27T18:46:21.651Z,28.15
2019-06-27T18:48:52.194Z,28.05
2019-06-27T18:51:21.586Z,28.40
2019-06-27T18:53:52.409Z,27.91
2019-06-27T18:56:23.196Z,27.92
2019-06-27T19:02:03.014Z,28.11
2019-06-27T19:04:32.442Z,28.33
2019-06-27T19:07:03.151Z,28.55
2019-06-27T19:15:23.788Z,28.98
2019-06-27T19:18:32.619Z,29.01
2019-06-27T19:21:05.774Z,29.17
2019-06-27T19:23:55.270Z,29.24
2019-06-27T19:26:24.876Z,29.20
2019-06-27T19:28:58.191Z,29.04
2019-06-27T19:31:27.635Z,29.22
2019-06-27T19:37:04.131Z,29.16
2019-06-27T19:39:34.120Z,29.08
2019-06-27T19:42:03.841Z,29.04
2019-06-27T19:44:33.895Z,29.28
2019-06-27T19:47:04.665Z,29.38
2019-06-27T19:49:34.088Z,29.52
2019-06-27T19:52:03.869Z,29.72
2019-06-27T19:57:42.772Z,29.79
2019-06-27T20:03:27.507Z,29.81
2019-06-27T20:05:57.268Z,30.05
2019-06-27T20:08:27.278Z,30.00
2019-06-27T20:10:57.748Z,30.23
2019-06-27T20:16:37.488Z,30.46
2019-06-27T20:19:07.484Z,30.58
2019-06-27T20:21:37.412Z,30.50
2019-06-27T20:24:07.919Z,30.57
2019-06-27T20:29:30.654Z,30.97
2019-06-27T20:31:59.433Z,31.11
2019-06-27T20:34:29.925Z,30.89
2019-06-27T20:36:59.749Z,30.93
2019-06-27T20:39:48.324Z,31.18
2019-06-27T20:42:18.429Z,31.40
2019-06-27T20:44:50.580Z,31.62
2019-06-27T20:47:20.306Z,31.84
2019-06-27T20:49:57.367Z,31.63
2019-06-27T20:52:28.227Z,31.86
2019-06-27T20:54:57.986Z,31.96
2019-06-27T21:09:25.726Z,32.64
2019-06-27T21:11:55.646Z,32.85
2019-06-27T21:14:25.940Z,33.09
2019-06-27T21:16:56.716Z,33.39
2019-06-27T21:19:27.699Z,33.09
2019-06-27T21:22:00.598Z,33.20
2019-06-27T21:24:31.126Z,33.97
2019-06-27T21:27:01.365Z,33.76
2019-06-27T21:29:31.662Z,34.18
2019-06-27T21:32:01.273Z,33.99
2019-06-27T21:34:31.800Z,34.38
2019-06-27T21:37:01.574Z,34.07
2019-06-27T21:39:31.040Z,34.26
2019-06-27T21:42:01.174Z,34.19
2019-06-27T21:44:30.766Z,34.32
2019-06-27T21:47:00.257Z,34.36
2019-06-27T21:49:49.007Z,34.52
2019-06-27T22:04:36.876Z,34.92
2019-06-27T22:07:06.515Z,34.99
2019-06-27T22:09:38.335Z,35.09
2019-06-27T22:12:08.231Z,35.10
2019-06-27T22:14:38.154Z,35.44
2019-06-27T22:17:08.132Z,35.55
2019-06-27T22:19:37.508Z,35.58
2019-06-27T22:25:16.020Z,36.27
2019-06-27T22:27:47.273Z,36.24
2019-06-27T22:35:54.100Z,36.93
2019-06-27T22:38:42.338Z,36.75
2019-06-27T22:41:31.371Z,36.92
2019-06-27T22:44:20.025Z,37.55
2019-06-27T22:47:08.393Z,37.43
2019-06-27T22:52:58.031Z,37.66
2019-06-27T23:01:18.857Z,37.88
2019-06-27T23:03:48.876Z,38.00
2019-06-27T23:06:18.687Z,38.27
2019-06-27T23:09:27.387Z,38.38
2019-06-27T23:11:57.050Z,38.47
2019-06-27T23:14:27.417Z,38.79
2019-06-27T23:16:57.721Z,39.06
2019-06-27T23:19:27.896Z,39.05
2019-06-27T23:24:54.943Z,39.66
2019-06-27T23:30:35.388Z,39.88
2019-06-27T23:33:05.469Z,39.95
2019-06-27T23:35:35.403Z,40.88
2019-06-27T23:38:05.306Z,40.55
2019-06-27T23:40:35.024Z,40.67
2019-06-27T23:43:04.929Z,40.96
2019-06-27T23:45:35.767Z,41.32
2019-06-27T23:48:05.902Z,41.32
2019-06-27T23:50:35.707Z,41.77
2019-06-27T23:53:06.377Z,41.37
2019-06-27T23:55:36.235Z,41.60
2019-06-27T23:58:06.783Z,41.66
